sensor_id;sensor_type;location;lat;lon;timestamp;P1;durP1;ratioP1;P2;durP2;ratioP2
5295;SDS011;2670;42.720;23.336;2024-03-08T00:00:04;3.17;;;2.67;;
5295;SDS011;2670;42.720;23.336;2024-03-08T00:02:35;2.83;;;2.07;;
5295;SDS011;2670;42.720;23.336;2024-03-08T00:05:02;2.40;;;1.63;;
5295;SDS011;2670;42.720;23.336;2024-03-08T00:07:29;1.93;;;1.60;;
5295;SDS011;2670;42.720;23.336;2024-03-08T00:09:57;2.37;;;2.13;;
5295;SDS011;2670;42.720;23.336;2024-03-08T00:12:24;1.73;;;1.60;;
5295;SDS011;2670;42.720;23.336;2024-03-08T00:14:52;2.63;;;2.07;;
5295;SDS011;2670;42.720;23.336;2024-03-08T00:17:19;3.13;;;2.07;;
5295;SDS011;2670;42.720;23.336;2024-03-08T00:19:47;3.00;;;2.43;;
5295;SDS011;2670;42.720;23.336;2024-03-08T00:22:14;1.83;;;1.73;;
5295;SDS011;2670;42.720;23.336;2024-03-08T00:24:41;3.13;;;2.53;;
5295;SDS011;2670;42.720;23.336;2024-03-08T00:27:09;5.17;;;3.00;;
5295;SDS011;2670;42.720;23.336;2024-03-08T00:29:37;1.93;;;1.70;;
5295;SDS011;2670;42.720;23.336;2024-03-08T00:32:05;5.03;;;2.37;;
5295;SDS011;2670;42.720;23.336;2024-03-08T00:34:34;6.20;;;3.10;;
5295;SDS011;2670;42.720;23.336;2024-03-08T00:37:02;4.87;;;2.83;;
5295;SDS011;2670;42.720;23.336;2024-03-08T00:39:29;6.97;;;2.07;;
5295;SDS011;2670;42.720;23.336;2024-03-08T00:41:56;6.97;;;2.13;;
5295;SDS011;2670;42.720;23.336;2024-03-08T00:44:24;2.43;;;2.23;;
5295;SDS011;2670;42.720;23.336;2024-03-08T00:46:51;3.50;;;2.77;;
5295;SDS011;2670;42.720;23.336;2024-03-08T00:49:17;4.90;;;3.40;;
5295;SDS011;2670;42.720;23.336;2024-03-08T00:51:45;6.77;;;3.77;;
5295;SDS011;2670;42.720;23.336;2024-03-08T00:54:11;3.20;;;2.53;;
5295;SDS011;2670;42.720;23.336;2024-03-08T00:56:38;4.07;;;2.60;;
5295;SDS011;2670;42.720;23.336;2024-03-08T00:59:06;3.60;;;2.93;;
5295;SDS011;2670;42.720;23.336;2024-03-08T01:01:34;8.37;;;4.43;;
5295;SDS011;2670;42.720;23.336;2024-03-08T01:04:01;5.10;;;2.87;;
5295;SDS011;2670;42.720;23.336;2024-03-08T01:06:28;4.00;;;2.70;;
5295;SDS011;2670;42.720;23.336;2024-03-08T01:08:54;5.03;;;2.73;;
5295;SDS011;2670;42.720;23.336;2024-03-08T01:11:21;3.50;;;1.93;;
5295;SDS011;2670;42.720;23.336;2024-03-08T01:13:48;2.60;;;2.07;;
5295;SDS011;2670;42.720;23.336;2024-03-08T01:16:14;4.63;;;2.60;;
5295;SDS011;2670;42.720;23.336;2024-03-08T01:18:43;2.50;;;2.30;;
5295;SDS011;2670;42.720;23.336;2024-03-08T01:21:10;2.93;;;2.40;;
5295;SDS011;2670;42.720;23.336;2024-03-08T01:23:37;1.90;;;1.70;;
5295;SDS011;2670;42.720;23.336;2024-03-08T01:26:03;4.10;;;2.10;;
5295;SDS011;2670;42.720;23.336;2024-03-08T01:28:30;2.83;;;2.57;;
5295;SDS011;2670;42.720;23.336;2024-03-08T01:30:59;2.17;;;1.97;;
5295;SDS011;2670;42.720;23.336;2024-03-08T01:33:26;1.80;;;1.67;;
5295;SDS011;2670;42.720;23.336;2024-03-08T01:35:54;2.33;;;2.10;;
5295;SDS011;2670;42.720;23.336;2024-03-08T01:38:22;2.50;;;2.00;;
5295;SDS011;2670;42.720;23.336;2024-03-08T01:40:49;2.57;;;1.87;;
5295;SDS011;2670;42.720;23.336;2024-03-08T01:43:19;3.30;;;2.90;;
5295;SDS011;2670;42.720;23.336;2024-03-08T01:45:47;4.27;;;2.30;;
5295;SDS011;2670;42.720;23.336;2024-03-08T01:48:14;3.00;;;2.70;;
5295;SDS011;2670;42.720;23.336;2024-03-08T01:50:41;2.93;;;2.63;;
5295;SDS011;2670;42.720;23.336;2024-03-08T01:53:09;4.03;;;2.60;;
5295;SDS011;2670;42.720;23.336;2024-03-08T01:55:37;1.80;;;1.70;;
5295;SDS011;2670;42.720;23.336;2024-03-08T01:58:05;4.50;;;2.40;;
5295;SDS011;2670;42.720;23.336;2024-03-08T02:00:32;3.60;;;2.63;;
5295;SDS011;2670;42.720;23.336;2024-03-08T02:03:00;1.80;;;1.70;;
5295;SDS011;2670;42.720;23.336;2024-03-08T02:05:29;1.90;;;1.70;;
5295;SDS011;2670;42.720;23.336;2024-03-08T02:07:56;2.90;;;2.13;;
5295;SDS011;2670;42.720;23.336;2024-03-08T02:10:25;2.77;;;2.10;;
5295;SDS011;2670;42.720;23.336;2024-03-08T02:12:52;1.80;;;1.70;;
5295;SDS011;2670;42.720;23.336;2024-03-08T02:15:18;2.70;;;2.20;;
5295;SDS011;2670;42.720;23.336;2024-03-08T02:17:46;1.40;;;1.30;;
5295;SDS011;2670;42.720;23.336;2024-03-08T02:20:14;2.40;;;2.20;;
5295;SDS011;2670;42.720;23.336;2024-03-08T02:22:42;1.60;;;1.43;;
5295;SDS011;2670;42.720;23.336;2024-03-08T02:25:09;2.20;;;2.00;;
5295;SDS011;2670;42.720;23.336;2024-03-08T02:27:37;1.57;;;1.37;;
5295;SDS011;2670;42.720;23.336;2024-03-08T02:30:04;1.53;;;1.43;;
5295;SDS011;2670;42.720;23.336;2024-03-08T02:32:31;1.93;;;1.50;;
5295;SDS011;2670;42.720;23.336;2024-03-08T02:34:58;1.70;;;1.40;;
5295;SDS011;2670;42.720;23.336;2024-03-08T02:37:26;1.90;;;1.13;;
5295;SDS011;2670;42.720;23.336;2024-03-08T02:39:54;1.50;;;1.40;;
5295;SDS011;2670;42.720;23.336;2024-03-08T02:42:21;1.17;;;1.17;;
5295;SDS011;2670;42.720;23.336;2024-03-08T02:44:48;2.00;;;1.50;;
5295;SDS011;2670;42.720;23.336;2024-03-08T02:47:15;3.70;;;2.00;;
5295;SDS011;2670;42.720;23.336;2024-03-08T02:49:41;1.53;;;1.00;;
5295;SDS011;2670;42.720;23.336;2024-03-08T02:52:08;1.30;;;1.20;;
5295;SDS011;2670;42.720;23.336;2024-03-08T02:54:35;1.60;;;1.50;;
5295;SDS011;2670;42.720;23.336;2024-03-08T02:57:03;1.40;;;1.30;;
5295;SDS011;2670;42.720;23.336;2024-03-08T02:59:32;1.17;;;1.07;;
5295;SDS011;2670;42.720;23.336;2024-03-08T03:01:59;1.27;;;1.17;;
5295;SDS011;2670;42.720;23.336;2024-03-08T03:04:26;4.37;;;2.43;;
5295;SDS011;2670;42.720;23.336;2024-03-08T03:06:53;4.63;;;2.23;;
5295;SDS011;2670;42.720;23.336;2024-03-08T03:09:20;3.93;;;2.27;;
5295;SDS011;2670;42.720;23.336;2024-03-08T03:11:52;1.97;;;1.60;;
5295;SDS011;2670;42.720;23.336;2024-03-08T03:14:21;2.40;;;1.97;;
5295;SDS011;2670;42.720;23.336;2024-03-08T03:16:47;6.10;;;1.70;;
5295;SDS011;2670;42.720;23.336;2024-03-08T03:19:15;2.17;;;1.63;;
5295;SDS011;2670;42.720;23.336;2024-03-08T03:21:41;1.27;;;1.00;;
5295;SDS011;2670;42.720;23.336;2024-03-08T03:24:09;2.30;;;1.20;;
5295;SDS011;2670;42.720;23.336;2024-03-08T03:26:36;1.17;;;1.07;;
5295;SDS011;2670;42.720;23.336;2024-03-08T03:29:04;1.20;;;1.20;;
5295;SDS011;2670;42.720;23.336;2024-03-08T03:31:35;1.20;;;1.20;;
5295;SDS011;2670;42.720;23.336;2024-03-08T03:34:02;5.67;;;2.00;;
5295;SDS011;2670;42.720;23.336;2024-03-08T03:36:29;1.60;;;1.50;;
5295;SDS011;2670;42.720;23.336;2024-03-08T03:38:56;2.00;;;1.80;;
5295;SDS011;2670;42.720;23.336;2024-03-08T03:41:32;1.50;;;1.40;;
5295;SDS011;2670;42.720;23.336;2024-03-08T03:43:59;1.67;;;1.50;;
5295;SDS011;2670;42.720;23.336;2024-03-08T03:46:26;1.67;;;1.57;;
5295;SDS011;2670;42.720;23.336;2024-03-08T03:48:54;3.13;;;1.80;;
5295;SDS011;2670;42.720;23.336;2024-03-08T03:51:21;1.97;;;1.77;;
5295;SDS011;2670;42.720;23.336;2024-03-08T03:53:48;1.57;;;1.47;;
5295;SDS011;2670;42.720;23.336;2024-03-08T03:56:15;2.20;;;1.80;;
5295;SDS011;2670;42.720;23.336;2024-03-08T03:58:41;1.83;;;1.30;;
5295;SDS011;2670;42.720;23.336;2024-03-08T04:01:08;2.27;;;1.87;;
5295;SDS011;2670;42.720;23.336;2024-03-08T04:03:35;2.90;;;1.90;;
5295;SDS011;2670;42.720;23.336;2024-03-08T04:06:04;1.90;;;1.70;;
5295;SDS011;2670;42.720;23.336;2024-03-08T04:08:31;2.33;;;2.20;;
5295;SDS011;2670;42.720;23.336;2024-03-08T04:10:59;2.03;;;1.83;;
5295;SDS011;2670;42.720;23.336;2024-03-08T04:13:26;1.43;;;1.33;;
5295;SDS011;2670;42.720;23.336;2024-03-08T04:15:53;3.20;;;2.30;;
5295;SDS011;2670;42.720;23.336;2024-03-08T04:18:19;5.70;;;4.20;;
5295;SDS011;2670;42.720;23.336;2024-03-08T04:20:46;3.20;;;2.90;;
5295;SDS011;2670;42.720;23.336;2024-03-08T04:23:14;3.30;;;2.80;;
5295;SDS011;2670;42.720;23.336;2024-03-08T04:25:42;5.97;;;2.70;;
5295;SDS011;2670;42.720;23.336;2024-03-08T04:28:09;6.23;;;5.17;;
5295;SDS011;2670;42.720;23.336;2024-03-08T04:30:37;3.83;;;2.93;;
5295;SDS011;2670;42.720;23.336;2024-03-08T04:33:04;5.67;;;3.77;;
5295;SDS011;2670;42.720;23.336;2024-03-08T04:35:32;3.83;;;3.40;;
5295;SDS011;2670;42.720;23.336;2024-03-08T04:37:59;3.20;;;2.90;;
5295;SDS011;2670;42.720;23.336;2024-03-08T04:40:27;5.67;;;3.20;;
5295;SDS011;2670;42.720;23.336;2024-03-08T04:42:54;3.87;;;3.17;;
5295;SDS011;2670;42.720;23.336;2024-03-08T04:45:20;6.63;;;3.47;;
5295;SDS011;2670;42.720;23.336;2024-03-08T04:47:47;7.60;;;4.70;;
5295;SDS011;2670;42.720;23.336;2024-03-08T04:50:14;6.57;;;3.57;;
5295;SDS011;2670;42.720;23.336;2024-03-08T04:52:41;7.77;;;4.57;;
5295;SDS011;2670;42.720;23.336;2024-03-08T04:55:10;9.43;;;5.67;;
5295;SDS011;2670;42.720;23.336;2024-03-08T04:57:38;9.20;;;4.87;;
5295;SDS011;2670;42.720;23.336;2024-03-08T05:00:07;6.33;;;3.67;;
5295;SDS011;2670;42.720;23.336;2024-03-08T05:02:36;5.07;;;3.37;;
5295;SDS011;2670;42.720;23.336;2024-03-08T05:05:04;9.77;;;8.13;;
5295;SDS011;2670;42.720;23.336;2024-03-08T05:07:32;6.43;;;3.73;;
5295;SDS011;2670;42.720;23.336;2024-03-08T05:09:59;8.43;;;5.00;;
5295;SDS011;2670;42.720;23.336;2024-03-08T05:12:25;7.17;;;4.00;;
5295;SDS011;2670;42.720;23.336;2024-03-08T05:14:53;5.40;;;4.50;;
5295;SDS011;2670;42.720;23.336;2024-03-08T05:17:20;8.53;;;6.13;;
5295;SDS011;2670;42.720;23.336;2024-03-08T05:19:49;5.77;;;4.20;;
5295;SDS011;2670;42.720;23.336;2024-03-08T05:22:15;11.20;;;5.27;;
5295;SDS011;2670;42.720;23.336;2024-03-08T05:24:42;9.07;;;5.70;;
5295;SDS011;2670;42.720;23.336;2024-03-08T05:27:09;9.30;;;5.70;;
5295;SDS011;2670;42.720;23.336;2024-03-08T05:29:44;8.57;;;5.20;;
5295;SDS011;2670;42.720;23.336;2024-03-08T05:32:12;20.67;;;10.50;;
5295;SDS011;2670;42.720;23.336;2024-03-08T05:34:39;12.50;;;6.50;;
5295;SDS011;2670;42.720;23.336;2024-03-08T05:37:06;10.47;;;5.80;;
5295;SDS011;2670;42.720;23.336;2024-03-08T05:39:33;7.90;;;5.17;;
5295;SDS011;2670;42.720;23.336;2024-03-08T05:42:00;12.70;;;7.20;;
5295;SDS011;2670;42.720;23.336;2024-03-08T05:44:26;17.20;;;8.77;;
5295;SDS011;2670;42.720;23.336;2024-03-08T05:46:53;13.70;;;6.77;;
5295;SDS011;2670;42.720;23.336;2024-03-08T05:49:22;13.53;;;7.70;;
5295;SDS011;2670;42.720;23.336;2024-03-08T05:51:50;10.10;;;5.80;;
5295;SDS011;2670;42.720;23.336;2024-03-08T05:54:16;10.03;;;6.10;;
5295;SDS011;2670;42.720;23.336;2024-03-08T05:56:43;9.00;;;5.50;;
5295;SDS011;2670;42.720;23.336;2024-03-08T05:59:10;10.23;;;6.27;;
5295;SDS011;2670;42.720;23.336;2024-03-08T06:01:37;10.83;;;6.20;;
5295;SDS011;2670;42.720;23.336;2024-03-08T06:04:06;10.63;;;5.47;;
5295;SDS011;2670;42.720;23.336;2024-03-08T06:06:34;8.50;;;5.83;;
5295;SDS011;2670;42.720;23.336;2024-03-08T06:09:02;10.83;;;6.93;;
5295;SDS011;2670;42.720;23.336;2024-03-08T06:11:34;7.70;;;5.33;;
5295;SDS011;2670;42.720;23.336;2024-03-08T06:14:02;7.87;;;4.70;;
5295;SDS011;2670;42.720;23.336;2024-03-08T06:16:29;7.13;;;4.63;;
5295;SDS011;2670;42.720;23.336;2024-03-08T06:18:56;6.87;;;4.40;;
5295;SDS011;2670;42.720;23.336;2024-03-08T06:21:22;7.83;;;4.70;;
5295;SDS011;2670;42.720;23.336;2024-03-08T06:23:53;8.93;;;4.90;;
5295;SDS011;2670;42.720;23.336;2024-03-08T06:26:22;9.97;;;6.17;;
5295;SDS011;2670;42.720;23.336;2024-03-08T06:28:49;12.57;;;6.50;;
5295;SDS011;2670;42.720;23.336;2024-03-08T06:31:16;9.50;;;6.10;;
5295;SDS011;2670;42.720;23.336;2024-03-08T06:33:43;6.17;;;4.60;;
5295;SDS011;2670;42.720;23.336;2024-03-08T06:36:10;7.93;;;5.70;;
5295;SDS011;2670;42.720;23.336;2024-03-08T06:38:37;9.90;;;5.90;;
5295;SDS011;2670;42.720;23.336;2024-03-08T06:41:08;10.73;;;5.80;;
5295;SDS011;2670;42.720;23.336;2024-03-08T06:43:40;9.07;;;5.83;;
5295;SDS011;2670;42.720;23.336;2024-03-08T06:46:07;9.17;;;6.37;;
5295;SDS011;2670;42.720;23.336;2024-03-08T06:48:34;9.93;;;6.80;;
5295;SDS011;2670;42.720;23.336;2024-03-08T06:51:03;9.17;;;6.27;;
5295;SDS011;2670;42.720;23.336;2024-03-08T06:53:30;7.80;;;4.97;;
5295;SDS011;2670;42.720;23.336;2024-03-08T06:55:57;9.20;;;6.40;;
5295;SDS011;2670;42.720;23.336;2024-03-08T06:58:25;10.77;;;6.93;;
5295;SDS011;2670;42.720;23.336;2024-03-08T07:00:52;9.07;;;4.70;;
5295;SDS011;2670;42.720;23.336;2024-03-08T07:03:23;7.00;;;4.80;;
5295;SDS011;2670;42.720;23.336;2024-03-08T07:05:51;6.60;;;4.57;;
5295;SDS011;2670;42.720;23.336;2024-03-08T07:08:18;7.40;;;5.20;;
5295;SDS011;2670;42.720;23.336;2024-03-08T07:10:47;9.93;;;5.30;;
5295;SDS011;2670;42.720;23.336;2024-03-08T07:13:14;7.30;;;5.00;;
5295;SDS011;2670;42.720;23.336;2024-03-08T07:15:43;8.80;;;5.53;;
5295;SDS011;2670;42.720;23.336;2024-03-08T07:18:10;9.13;;;4.90;;
5295;SDS011;2670;42.720;23.336;2024-03-08T07:20:39;6.47;;;4.47;;
5295;SDS011;2670;42.720;23.336;2024-03-08T07:23:06;7.40;;;4.80;;
5295;SDS011;2670;42.720;23.336;2024-03-08T07:25:33;9.80;;;6.13;;
5295;SDS011;2670;42.720;23.336;2024-03-08T07:28:00;10.37;;;5.37;;
5295;SDS011;2670;42.720;23.336;2024-03-08T07:30:27;9.07;;;5.47;;
5295;SDS011;2670;42.720;23.336;2024-03-08T07:33:12;8.00;;;5.33;;
5295;SDS011;2670;42.720;23.336;2024-03-08T07:35:39;9.00;;;5.63;;
5295;SDS011;2670;42.720;23.336;2024-03-08T07:38:07;6.57;;;5.20;;
5295;SDS011;2670;42.720;23.336;2024-03-08T07:40:35;7.20;;;5.30;;
5295;SDS011;2670;42.720;23.336;2024-03-08T07:43:03;8.40;;;4.60;;
5295;SDS011;2670;42.720;23.336;2024-03-08T07:45:30;8.80;;;4.67;;
5295;SDS011;2670;42.720;23.336;2024-03-08T07:47:57;7.73;;;4.97;;
5295;SDS011;2670;42.720;23.336;2024-03-08T07:50:25;8.40;;;5.60;;
5295;SDS011;2670;42.720;23.336;2024-03-08T07:52:51;7.77;;;4.00;;
5295;SDS011;2670;42.720;23.336;2024-03-08T07:55:18;6.07;;;4.20;;
5295;SDS011;2670;42.720;23.336;2024-03-08T07:57:45;4.67;;;3.70;;
5295;SDS011;2670;42.720;23.336;2024-03-08T08:00:13;12.37;;;7.03;;
5295;SDS011;2670;42.720;23.336;2024-03-08T08:02:42;9.63;;;5.60;;
5295;SDS011;2670;42.720;23.336;2024-03-08T08:05:10;9.10;;;5.17;;
5295;SDS011;2670;42.720;23.336;2024-03-08T08:07:38;7.50;;;4.20;;
5295;SDS011;2670;42.720;23.336;2024-03-08T08:10:08;7.37;;;4.17;;
5295;SDS011;2670;42.720;23.336;2024-03-08T08:12:41;4.63;;;3.43;;
5295;SDS011;2670;42.720;23.336;2024-03-08T08:15:08;4.50;;;3.30;;
5295;SDS011;2670;42.720;23.336;2024-03-08T08:17:35;5.03;;;3.40;;
5295;SDS011;2670;42.720;23.336;2024-03-08T08:20:02;13.10;;;5.13;;
5295;SDS011;2670;42.720;23.336;2024-03-08T08:22:30;4.60;;;3.37;;
5295;SDS011;2670;42.720;23.336;2024-03-08T08:24:58;4.13;;;2.60;;
5295;SDS011;2670;42.720;23.336;2024-03-08T08:27:26;10.43;;;4.10;;
5295;SDS011;2670;42.720;23.336;2024-03-08T08:29:53;22.63;;;10.87;;
5295;SDS011;2670;42.720;23.336;2024-03-08T08:32:21;36.70;;;14.57;;
5295;SDS011;2670;42.720;23.336;2024-03-08T08:34:47;9.10;;;4.13;;
5295;SDS011;2670;42.720;23.336;2024-03-08T08:37:14;5.17;;;4.00;;
5295;SDS011;2670;42.720;23.336;2024-03-08T08:39:41;3.77;;;3.03;;
5295;SDS011;2670;42.720;23.336;2024-03-08T08:42:09;2.60;;;2.40;;
5295;SDS011;2670;42.720;23.336;2024-03-08T08:44:36;6.70;;;3.40;;
5295;SDS011;2670;42.720;23.336;2024-03-08T08:47:03;5.20;;;3.03;;
5295;SDS011;2670;42.720;23.336;2024-03-08T08:49:29;3.20;;;2.90;;
5295;SDS011;2670;42.720;23.336;2024-03-08T08:51:56;2.63;;;2.40;;
5295;SDS011;2670;42.720;23.336;2024-03-08T08:54:24;3.30;;;2.90;;
5295;SDS011;2670;42.720;23.336;2024-03-08T08:56:52;7.00;;;3.30;;
5295;SDS011;2670;42.720;23.336;2024-03-08T08:59:21;3.83;;;3.10;;
5295;SDS011;2670;42.720;23.336;2024-03-08T09:01:50;4.43;;;2.63;;
5295;SDS011;2670;42.720;23.336;2024-03-08T09:04:18;5.60;;;3.97;;
5295;SDS011;2670;42.720;23.336;2024-03-08T09:06:46;2.70;;;2.40;;
5295;SDS011;2670;42.720;23.336;2024-03-08T09:09:13;3.90;;;2.67;;
5295;SDS011;2670;42.720;23.336;2024-03-08T09:11:42;3.80;;;2.70;;
5295;SDS011;2670;42.720;23.336;2024-03-08T09:14:08;3.87;;;2.70;;
5295;SDS011;2670;42.720;23.336;2024-03-08T09:16:38;4.20;;;2.23;;
5295;SDS011;2670;42.720;23.336;2024-03-08T09:19:05;2.87;;;2.37;;
5295;SDS011;2670;42.720;23.336;2024-03-08T09:21:32;3.60;;;2.50;;
5295;SDS011;2670;42.720;23.336;2024-03-08T09:24:00;2.87;;;2.10;;
5295;SDS011;2670;42.720;23.336;2024-03-08T09:26:27;4.17;;;3.60;;
5295;SDS011;2670;42.720;23.336;2024-03-08T09:28:54;3.80;;;2.83;;
5295;SDS011;2670;42.720;23.336;2024-03-08T09:31:21;7.00;;;3.57;;
5295;SDS011;2670;42.720;23.336;2024-03-08T09:33:49;3.03;;;2.80;;
5295;SDS011;2670;42.720;23.336;2024-03-08T09:36:15;5.03;;;3.30;;
5295;SDS011;2670;42.720;23.336;2024-03-08T09:38:42;3.10;;;2.47;;
5295;SDS011;2670;42.720;23.336;2024-03-08T09:41:09;2.60;;;2.20;;
5295;SDS011;2670;42.720;23.336;2024-03-08T09:43:37;2.57;;;2.00;;
5295;SDS011;2670;42.720;23.336;2024-03-08T09:46:04;5.07;;;3.10;;
5295;SDS011;2670;42.720;23.336;2024-03-08T09:48:33;5.10;;;3.60;;
5295;SDS011;2670;42.720;23.336;2024-03-08T09:51:02;3.83;;;2.67;;
5295;SDS011;2670;42.720;23.336;2024-03-08T09:53:29;3.77;;;3.00;;
5295;SDS011;2670;42.720;23.336;2024-03-08T09:55:56;2.77;;;2.33;;
5295;SDS011;2670;42.720;23.336;2024-03-08T09:58:24;3.37;;;2.47;;
5295;SDS011;2670;42.720;23.336;2024-03-08T10:01:16;2.70;;;2.33;;
5295;SDS011;2670;42.720;23.336;2024-03-08T10:03:43;3.77;;;2.30;;
5295;SDS011;2670;42.720;23.336;2024-03-08T10:06:11;7.23;;;3.20;;
5295;SDS011;2670;42.720;23.336;2024-03-08T10:08:38;2.50;;;2.13;;
5295;SDS011;2670;42.720;23.336;2024-03-08T10:11:06;2.20;;;2.00;;
5295;SDS011;2670;42.720;23.336;2024-03-08T10:13:33;2.97;;;2.03;;
5295;SDS011;2670;42.720;23.336;2024-03-08T10:16:01;6.10;;;2.80;;
5295;SDS011;2670;42.720;23.336;2024-03-08T10:18:27;2.10;;;1.83;;
5295;SDS011;2670;42.720;23.336;2024-03-08T10:21:04;2.17;;;1.70;;
5295;SDS011;2670;42.720;23.336;2024-03-08T10:23:33;2.27;;;2.07;;
5295;SDS011;2670;42.720;23.336;2024-03-08T10:26:12;3.53;;;2.43;;
5295;SDS011;2670;42.720;23.336;2024-03-08T10:28:40;2.00;;;1.90;;
5295;SDS011;2670;42.720;23.336;2024-03-08T10:31:08;2.20;;;1.97;;
5295;SDS011;2670;42.720;23.336;2024-03-08T10:33:35;2.03;;;1.60;;
5295;SDS011;2670;42.720;23.336;2024-03-08T10:36:03;1.80;;;1.40;;
5295;SDS011;2670;42.720;23.336;2024-03-08T10:38:31;1.80;;;1.67;;
5295;SDS011;2670;42.720;23.336;2024-03-08T10:41:01;2.20;;;1.53;;
5295;SDS011;2670;42.720;23.336;2024-03-08T10:43:31;3.00;;;2.20;;
5295;SDS011;2670;42.720;23.336;2024-03-08T10:46:06;2.30;;;2.10;;
5295;SDS011;2670;42.720;23.336;2024-03-08T10:48:44;5.13;;;3.00;;
5295;SDS011;2670;42.720;23.336;2024-03-08T10:51:11;3.93;;;2.47;;
5295;SDS011;2670;42.720;23.336;2024-03-08T10:53:39;4.30;;;3.10;;
5295;SDS011;2670;42.720;23.336;2024-03-08T10:56:07;2.80;;;2.00;;
5295;SDS011;2670;42.720;23.336;2024-03-08T10:58:35;5.40;;;2.10;;
5295;SDS011;2670;42.720;23.336;2024-03-08T11:01:03;3.50;;;2.63;;
5295;SDS011;2670;42.720;23.336;2024-03-08T11:03:44;2.63;;;2.03;;
5295;SDS011;2670;42.720;23.336;2024-03-08T11:06:14;4.27;;;2.70;;
5295;SDS011;2670;42.720;23.336;2024-03-08T11:08:43;2.17;;;1.70;;
5295;SDS011;2670;42.720;23.336;2024-03-08T11:11:26;2.70;;;1.80;;
5295;SDS011;2670;42.720;23.336;2024-03-08T11:13:56;2.67;;;1.80;;
5295;SDS011;2670;42.720;23.336;2024-03-08T11:16:39;4.47;;;2.00;;
5295;SDS011;2670;42.720;23.336;2024-03-08T11:22:01;2.03;;;1.73;;
5295;SDS011;2670;42.720;23.336;2024-03-08T11:24:37;1.83;;;1.73;;
5295;SDS011;2670;42.720;23.336;2024-03-08T11:27:06;1.60;;;1.50;;
5295;SDS011;2670;42.720;23.336;2024-03-08T11:29:32;2.63;;;2.00;;
5295;SDS011;2670;42.720;23.336;2024-03-08T11:32:05;2.33;;;1.80;;
5295;SDS011;2670;42.720;23.336;2024-03-08T11:34:34;8.23;;;2.67;;
5295;SDS011;2670;42.720;23.336;2024-03-08T11:37:03;1.70;;;1.60;;
5295;SDS011;2670;42.720;23.336;2024-03-08T11:39:30;1.90;;;1.70;;
5295;SDS011;2670;42.720;23.336;2024-03-08T11:41:59;2.87;;;1.97;;
5295;SDS011;2670;42.720;23.336;2024-03-08T11:44:26;3.20;;;2.57;;
5295;SDS011;2670;42.720;23.336;2024-03-08T11:46:53;1.70;;;1.60;;
5295;SDS011;2670;42.720;23.336;2024-03-08T11:49:20;1.87;;;1.67;;
5295;SDS011;2670;42.720;23.336;2024-03-08T11:51:50;3.03;;;2.10;;
5295;SDS011;2670;42.720;23.336;2024-03-08T11:54:18;2.10;;;1.87;;
5295;SDS011;2670;42.720;23.336;2024-03-08T11:56:45;1.70;;;1.60;;
5295;SDS011;2670;42.720;23.336;2024-03-08T11:59:14;1.70;;;1.60;;
5295;SDS011;2670;42.720;23.336;2024-03-08T12:01:42;1.90;;;1.73;;
5295;SDS011;2670;42.720;23.336;2024-03-08T12:04:11;3.33;;;2.07;;
5295;SDS011;2670;42.720;23.336;2024-03-08T12:06:39;4.47;;;1.53;;
5295;SDS011;2670;42.720;23.336;2024-03-08T12:09:10;1.80;;;1.70;;
5295;SDS011;2670;42.720;23.336;2024-03-08T12:11:38;2.40;;;1.60;;
5295;SDS011;2670;42.720;23.336;2024-03-08T12:14:05;3.03;;;2.00;;
5295;SDS011;2670;42.720;23.336;2024-03-08T12:16:34;5.60;;;3.30;;
5295;SDS011;2670;42.720;23.336;2024-03-08T12:19:02;1.80;;;1.60;;
5295;SDS011;2670;42.720;23.336;2024-03-08T12:21:31;3.23;;;2.90;;
5295;SDS011;2670;42.720;23.336;2024-03-08T12:24:03;5.77;;;3.80;;
5295;SDS011;2670;42.720;23.336;2024-03-08T12:26:34;3.67;;;3.17;;
5295;SDS011;2670;42.720;23.336;2024-03-08T12:29:14;2.20;;;2.00;;
5295;SDS011;2670;42.720;23.336;2024-03-08T12:31:43;2.40;;;2.20;;
5295;SDS011;2670;42.720;23.336;2024-03-08T12:34:10;2.40;;;1.93;;
5295;SDS011;2670;42.720;23.336;2024-03-08T12:36:39;2.23;;;1.80;;
5295;SDS011;2670;42.720;23.336;2024-03-08T12:39:12;2.70;;;2.00;;
5295;SDS011;2670;42.720;23.336;2024-03-08T12:41:41;2.27;;;2.10;;
5295;SDS011;2670;42.720;23.336;2024-03-08T12:44:08;2.43;;;2.00;;
5295;SDS011;2670;42.720;23.336;2024-03-08T12:46:36;2.47;;;1.77;;
5295;SDS011;2670;42.720;23.336;2024-03-08T12:49:07;2.60;;;2.20;;
5295;SDS011;2670;42.720;23.336;2024-03-08T12:51:34;2.97;;;2.70;;
5295;SDS011;2670;42.720;23.336;2024-03-08T12:54:01;2.23;;;2.00;;
5295;SDS011;2670;42.720;23.336;2024-03-08T12:56:29;2.93;;;1.60;;
5295;SDS011;2670;42.720;23.336;2024-03-08T12:58:57;2.37;;;2.17;;
5295;SDS011;2670;42.720;23.336;2024-03-08T13:01:25;2.17;;;1.97;;
5295;SDS011;2670;42.720;23.336;2024-03-08T13:03:51;3.53;;;1.80;;
5295;SDS011;2670;42.720;23.336;2024-03-08T13:06:20;3.47;;;2.40;;
5295;SDS011;2670;42.720;23.336;2024-03-08T13:08:49;1.80;;;1.70;;
5295;SDS011;2670;42.720;23.336;2024-03-08T13:11:17;4.33;;;2.20;;
5295;SDS011;2670;42.720;23.336;2024-03-08T13:13:44;2.50;;;1.67;;
5295;SDS011;2670;42.720;23.336;2024-03-08T13:16:11;2.87;;;1.93;;
5295;SDS011;2670;42.720;23.336;2024-03-08T13:18:40;6.10;;;4.37;;
5295;SDS011;2670;42.720;23.336;2024-03-08T13:21:07;4.03;;;2.70;;
5295;SDS011;2670;42.720;23.336;2024-03-08T13:23:36;2.50;;;2.23;;
5295;SDS011;2670;42.720;23.336;2024-03-08T13:26:05;3.23;;;2.20;;
5295;SDS011;2670;42.720;23.336;2024-03-08T13:28:32;3.10;;;2.67;;
5295;SDS011;2670;42.720;23.336;2024-03-08T13:31:02;2.30;;;2.10;;
5295;SDS011;2670;42.720;23.336;2024-03-08T13:33:31;2.70;;;2.40;;
5295;SDS011;2670;42.720;23.336;2024-03-08T13:36:00;4.10;;;2.10;;
5295;SDS011;2670;42.720;23.336;2024-03-08T13:38:28;2.27;;;2.07;;
5295;SDS011;2670;42.720;23.336;2024-03-08T13:40:58;2.27;;;2.00;;
5295;SDS011;2670;42.720;23.336;2024-03-08T13:43:25;4.07;;;1.93;;
5295;SDS011;2670;42.720;23.336;2024-03-08T13:45:53;3.17;;;1.97;;
5295;SDS011;2670;42.720;23.336;2024-03-08T13:48:20;2.53;;;2.33;;
5295;SDS011;2670;42.720;23.336;2024-03-08T13:50:48;4.90;;;2.57;;
5295;SDS011;2670;42.720;23.336;2024-03-08T13:53:15;1.70;;;1.60;;
5295;SDS011;2670;42.720;23.336;2024-03-08T13:55:41;3.17;;;2.87;;
5295;SDS011;2670;42.720;23.336;2024-03-08T13:58:10;3.93;;;2.80;;
5295;SDS011;2670;42.720;23.336;2024-03-08T14:00:39;4.93;;;3.13;;
5295;SDS011;2670;42.720;23.336;2024-03-08T14:03:08;5.33;;;3.40;;
5295;SDS011;2670;42.720;23.336;2024-03-08T14:05:38;5.87;;;3.40;;
5295;SDS011;2670;42.720;23.336;2024-03-08T14:08:05;4.20;;;2.93;;
5295;SDS011;2670;42.720;23.336;2024-03-08T14:10:32;4.60;;;3.63;;
5295;SDS011;2670;42.720;23.336;2024-03-08T14:12:59;3.30;;;2.37;;
5295;SDS011;2670;42.720;23.336;2024-03-08T14:15:30;11.13;;;4.63;;
5295;SDS011;2670;42.720;23.336;2024-03-08T14:17:57;10.23;;;3.67;;
5295;SDS011;2670;42.720;23.336;2024-03-08T14:20:23;4.37;;;2.97;;
5295;SDS011;2670;42.720;23.336;2024-03-08T14:22:52;6.77;;;4.57;;
5295;SDS011;2670;42.720;23.336;2024-03-08T14:25:19;5.90;;;3.23;;
5295;SDS011;2670;42.720;23.336;2024-03-08T14:27:48;5.63;;;3.40;;
5295;SDS011;2670;42.720;23.336;2024-03-08T14:30:16;7.90;;;3.67;;
5295;SDS011;2670;42.720;23.336;2024-03-08T14:32:58;3.03;;;2.60;;
5295;SDS011;2670;42.720;23.336;2024-03-08T14:35:25;2.87;;;2.10;;
5295;SDS011;2670;42.720;23.336;2024-03-08T14:37:52;4.17;;;2.87;;
5295;SDS011;2670;42.720;23.336;2024-03-08T14:40:19;5.90;;;3.80;;
5295;SDS011;2670;42.720;23.336;2024-03-08T14:42:47;10.97;;;4.00;;
5295;SDS011;2670;42.720;23.336;2024-03-08T14:45:15;5.20;;;4.43;;
5295;SDS011;2670;42.720;23.336;2024-03-08T14:47:41;9.20;;;5.80;;
5295;SDS011;2670;42.720;23.336;2024-03-08T14:50:10;8.13;;;5.67;;
5295;SDS011;2670;42.720;23.336;2024-03-08T14:52:37;5.43;;;4.10;;
5295;SDS011;2670;42.720;23.336;2024-03-08T14:55:05;10.40;;;4.20;;
5295;SDS011;2670;42.720;23.336;2024-03-08T14:57:32;4.03;;;3.40;;
5295;SDS011;2670;42.720;23.336;2024-03-08T14:59:59;5.33;;;3.57;;
5295;SDS011;2670;42.720;23.336;2024-03-08T15:02:31;5.53;;;3.70;;
5295;SDS011;2670;42.720;23.336;2024-03-08T15:04:59;3.67;;;3.30;;
5295;SDS011;2670;42.720;23.336;2024-03-08T15:07:28;4.30;;;3.10;;